Time;durP1;ratioP1;P1;durP2;ratioP2;P2;SDS_P1;SDS_P2;PMS_P1;PMS_P2;Temp;Humidity;BMP_temperature;BMP_pressure;BME280_temperature;BME280_humidity;BME280_pressure;Samples;Min_cycle;Max_cycle;Signal;HPM_P1;HPM_P2
2023/11/08 00:01:24;;;;;;;6.93;3.78;;;;;;;;;;10071794;28;20041;-72
2023/11/08 00:06:16;;;;;;;3.90;2.88;;;;;;;;;;10071275;28;20050;-72
2023/11/08 00:11:08;;;;;;;10.10;4.68;;;;;;;;;;10067063;28;20468;-72
2023/11/08 00:16:00;;;;;;;11.80;2.92;;;;;;;;;;10071222;28;20457;-71
2023/11/08 00:20:52;;;;;;;5.22;2.67;;;;;;;;;;10071405;28;20171;-72
2023/11/08 00:25:43;;;;;;;6.88;3.00;;;;;;;;;;10071096;28;20091;-72
2023/11/08 00:30:35;;;;;;;4.35;2.58;;;;;;;;;;10070531;28;20049;-71
2023/11/08 00:35:27;;;;;;;5.72;2.08;;;;;;;;;;10061266;28;20041;-71
2023/11/08 00:40:19;;;;;;;10.45;4.03;;;;;;;;;;10021977;28;20092;-72
2023/11/08 00:45:11;;;;;;;6.60;2.60;;;;;;;;;;10030223;28;20049;-72
2023/11/08 00:50:04;;;;;;;5.30;3.28;;;;;;;;;;10027574;28;20127;-72
2023/11/08 00:54:56;;;;;;;4.07;2.90;;;;;;;;;;10030430;28;20370;-72
2023/11/08 00:59:48;;;;;;;3.42;2.35;;;;;;;;;;10032273;28;20046;-72
2023/11/08 01:04:40;;;;;;;3.95;1.70;;;;;;;;;;10031874;28;20409;-72
2023/11/08 01:09:32;;;;;;;3.10;2.33;;;;;;;;;;10030516;28;20086;-72
2023/11/08 01:14:24;;;;;;;6.20;2.20;;;;;;;;;;10030610;28;20440;-72
2023/11/08 01:19:16;;;;;;;5.03;2.67;;;;;;;;;;10029431;28;20192;-72
2023/11/08 01:24:08;;;;;;;14.27;2.88;;;;;;;;;;10027332;28;20092;-72
2023/11/08 01:29:00;;;;;;;9.63;2.45;;;;;;;;;;10031068;28;20049;-71
2023/11/08 01:33:55;;;;;;;3.72;2.00;;;;;;;;;;10029528;28;20046;-72
2023/11/08 01:38:47;;;;;;;3.65;1.83;;;;;;;;;;10029975;28;20038;-72
2023/11/08 01:43:39;;;;;;;6.95;2.40;;;;;;;;;;10029236;28;20377;-72
2023/11/08 01:48:32;;;;;;;6.72;2.38;;;;;;;;;;10027668;28;20054;-72
2023/11/08 01:53:27;;;;;;;10.40;3.92;;;;;;;;;;10030137;28;20490;-72
2023/11/08 01:58:20;;;;;;;7.25;3.75;;;;;;;;;;10009046;28;20536;-71
2023/11/08 02:03:12;;;;;;;6.97;3.72;;;;;;;;;;10029491;28;20156;-72
2023/11/08 02:08:05;;;;;;;8.75;3.88;;;;;;;;;;10010643;28;20056;-72
2023/11/08 02:12:58;;;;;;;11.77;4.63;;;;;;;;;;10026405;28;20046;-72
2023/11/08 02:17:50;;;;;;;7.32;4.10;;;;;;;;;;10008866;28;20394;-72
2023/11/08 02:22:42;;;;;;;9.25;3.60;;;;;;;;;;10028484;28;20044;-72
2023/11/08 02:27:34;;;;;;;11.85;5.13;;;;;;;;;;10025938;28;20053;-72
2023/11/08 02:32:26;;;;;;;6.07;3.80;;;;;;;;;;10028252;28;20045;-72
2023/11/08 02:37:18;;;;;;;9.07;4.75;;;;;;;;;;10027094;28;20137;-72
2023/11/08 02:42:10;;;;;;;6.80;5.25;;;;;;;;;;10029186;28;20065;-72
2023/11/08 02:47:02;;;;;;;13.40;6.82;;;;;;;;;;10026655;28;20113;-72
2023/11/08 02:51:54;;;;;;;8.48;6.30;;;;;;;;;;10025216;28;20129;-72
2023/11/08 02:56:46;;;;;;;11.60;7.88;;;;;;;;;;10026841;28;20527;-72
2023/11/08 03:01:38;;;;;;;18.90;15.02;;;;;;;;;;10016349;28;20389;-72
2023/11/08 03:06:30;;;;;;;22.67;12.75;;;;;;;;;;10027752;28;20038;-72
2023/11/08 03:11:23;;;;;;;20.15;15.90;;;;;;;;;;10026640;28;20046;-72
2023/11/08 03:16:16;;;;;;;28.58;19.60;;;;;;;;;;10025748;28;20372;-72
2023/11/08 03:21:08;;;;;;;29.02;22.70;;;;;;;;;;10026601;28;20038;-72
2023/11/08 03:26:00;;;;;;;31.95;22.95;;;;;;;;;;10025396;28;20551;-72
2023/11/08 03:30:51;;;;;;;31.98;25.42;;;;;;;;;;10025012;28;20416;-72
2023/11/08 03:35:43;;;;;;;43.20;31.50;;;;;;;;;;10024607;28;20590;-71
2023/11/08 03:40:35;;;;;;;42.22;28.05;;;;;;;;;;10026094;28;20050;-72
2023/11/08 03:45:27;;;;;;;37.15;26.85;;;;;;;;;;10031054;28;20052;-71
2023/11/08 03:50:19;;;;;;;28.38;21.15;;;;;;;;;;10032509;28;20457;-72
2023/11/08 03:55:11;;;;;;;34.90;24.23;;;;;;;;;;10033054;28;20447;-72
2023/11/08 04:00:04;;;;;;;35.40;26.52;;;;;;;;;;10032546;28;20050;-72
2023/11/08 04:05:00;;;;;;;36.97;25.73;;;;;;;;;;10032650;28;20071;-72
2023/11/08 04:09:52;;;;;;;38.40;25.88;;;;;;;;;;10030648;28;20384;-71
2023/11/08 04:14:45;;;;;;;30.77;23.17;;;;;;;;;;10031847;28;20081;-72
2023/11/08 04:19:37;;;;;;;36.15;26.40;;;;;;;;;;10033192;28;20052;-72
2023/11/08 04:24:29;;;;;;;33.15;27.15;;;;;;;;;;10032507;28;20077;-70
2023/11/08 04:29:21;;;;;;;42.00;27.60;;;;;;;;;;10031659;28;20065;-72
2023/11/08 04:34:12;;;;;;;41.83;31.83;;;;;;;;;;10024543;28;20413;-72
2023/11/08 04:39:04;;;;;;;41.75;32.45;;;;;;;;;;10030777;28;20536;-71
2023/11/08 04:43:56;;;;;;;44.17;32.50;;;;;;;;;;10032093;28;20152;-72
2023/11/08 04:48:50;;;;;;;42.40;32.05;;;;;;;;;;10031966;28;20084;-71
2023/11/08 04:53:42;;;;;;;46.50;35.30;;;;;;;;;;10031295;28;20133;-72
2023/11/08 04:58:33;;;;;;;44.15;31.88;;;;;;;;;;10032221;28;20054;-72
2023/11/08 05:03:26;;;;;;;45.00;37.22;;;;;;;;;;10022341;28;20050;-72
2023/11/08 05:08:20;;;;;;;44.58;34.17;;;;;;;;;;10030968;28;20108;-72
2023/11/08 05:13:12;;;;;;;43.38;34.08;;;;;;;;;;10011949;28;20042;-72
2023/11/08 05:18:04;;;;;;;43.67;32.22;;;;;;;;;;10030219;28;20078;-71
2023/11/08 05:22:56;;;;;;;48.05;34.85;;;;;;;;;;10030489;28;20053;-71
2023/11/08 05:27:49;;;;;;;56.72;43.88;;;;;;;;;;10029382;28;20073;-72
2023/11/08 05:32:44;;;;;;;52.30;44.15;;;;;;;;;;10028940;28;20052;-72
2023/11/08 05:37:37;;;;;;;47.55;37.65;;;;;;;;;;10028992;28;20088;-72
2023/11/08 05:42:29;;;;;;;42.55;29.67;;;;;;;;;;10020700;28;20376;-71
2023/11/08 05:47:21;;;;;;;54.58;38.15;;;;;;;;;;10019893;28;20428;-72
2023/11/08 05:52:13;;;;;;;42.13;35.70;;;;;;;;;;10018963;28;20041;-72
2023/11/08 05:57:05;;;;;;;44.60;29.60;;;;;;;;;;10031294;28;20129;-72
2023/11/08 06:01:57;;;;;;;43.80;30.38;;;;;;;;;;10025487;28;20081;-72
2023/11/08 06:06:50;;;;;;;44.10;29.17;;;;;;;;;;10030758;28;20050;-72
2023/11/08 06:11:42;;;;;;;45.17;31.05;;;;;;;;;;10021318;28;20100;-72
2023/11/08 06:16:34;;;;;;;37.00;26.55;;;;;;;;;;10040954;28;20449;-72
2023/11/08 06:21:26;;;;;;;39.90;26.63;;;;;;;;;;10053157;28;20041;-72
2023/11/08 06:26:18;;;;;;;92.50;60.05;;;;;;;;;;10044341;28;20345;-71
2023/11/08 06:31:10;;;;;;;32.40;25.58;;;;;;;;;;10057531;28;20049;-72
2023/11/08 06:36:02;;;;;;;39.33;27.45;;;;;;;;;;10046828;28;20042;-72
2023/11/08 06:40:54;;;;;;;43.47;27.25;;;;;;;;;;10061252;28;20080;-71
2023/11/08 06:45:46;;;;;;;36.35;27.77;;;;;;;;;;10061538;28;20136;-72
2023/11/08 06:50:37;;;;;;;42.35;33.35;;;;;;;;;;10065541;28;20468;-72
2023/11/08 06:55:33;;;;;;;46.40;32.75;;;;;;;;;;10064094;28;20100;-73
2023/11/08 07:00:30;;;;;;;78.70;49.15;;;;;;;;;;10050350;28;20057;-72
2023/11/08 07:05:22;;;;;;;55.20;35.90;;;;;;;;;;10051013;28;20049;-72
2023/11/08 07:10:26;;;;;;;39.92;30.52;;;;;;;;;;10039379;28;20053;-72
2023/11/08 07:15:19;;;;;;;40.90;32.15;;;;;;;;;;10057970;28;20423;-72
2023/11/08 07:20:11;;;;;;;57.63;37.05;;;;;;;;;;10070219;28;20092;-72
2023/11/08 07:25:03;;;;;;;51.78;34.58;;;;;;;;;;10073214;28;20475;-72
2023/11/08 07:29:56;;;;;;;46.40;33.67;;;;;;;;;;10073409;28;20095;-71
2023/11/08 07:34:47;;;;;;;45.85;35.05;;;;;;;;;;10072452;28;20091;-73
2023/11/08 07:39:40;;;;;;;44.97;30.88;;;;;;;;;;10064472;28;20058;-72
2023/11/08 07:44:32;;;;;;;43.90;29.90;;;;;;;;;;10072406;28;20468;-72
2023/11/08 07:49:24;;;;;;;41.92;29.77;;;;;;;;;;10066440;28;20050;-73
2023/11/08 07:54:16;;;;;;;43.60;32.22;;;;;;;;;;10052457;28;20069;-72
2023/11/08 07:59:09;;;;;;;39.50;28.02;;;;;;;;;;10066229;28;20136;-72
2023/11/08 08:04:01;;;;;;;37.47;26.83;;;;;;;;;;10069638;28;20046;-72
2023/11/08 08:08:55;;;;;;;33.38;26.33;;;;;;;;;;10064462;28;20049;-72
2023/11/08 08:13:47;;;;;;;39.83;27.88;;;;;;;;;;10058684;28;20487;-72
2023/11/08 08:18:42;;;;;;;45.60;25.27;;;;;;;;;;10067101;28;20484;-72
2023/11/08 08:23:34;;;;;;;37.22;26.70;;;;;;;;;;10043599;28;20046;-72
2023/11/08 08:28:26;;;;;;;37.63;27.08;;;;;;;;;;10065273;28;20073;-72
2023/11/08 08:33:19;;;;;;;32.25;21.88;;;;;;;;;;10068928;28;20049;-72
2023/11/08 08:38:12;;;;;;;32.85;23.52;;;;;;;;;;10070328;28;20053;-72
2023/11/08 08:43:05;;;;;;;36.28;23.27;;;;;;;;;;10056393;28;20354;-72
2023/11/08 08:47:59;;;;;;;34.38;24.35;;;;;;;;;;10069825;28;20068;-72
2023/11/08 08:52:51;;;;;;;32.30;22.67;;;;;;;;;;10061819;28;20041;-72
2023/11/08 08:57:46;;;;;;;26.98;19.88;;;;;;;;;;10060803;28;20056;-71
2023/11/08 09:02:38;;;;;;;33.40;21.48;;;;;;;;;;10053443;28;20384;-72
2023/11/08 09:07:33;;;;;;;27.27;19.42;;;;;;;;;;10026496;28;20537;-72
2023/11/08 09:12:25;;;;;;;30.73;21.95;;;;;;;;;;10025275;28;20124;-72
2023/11/08 09:17:17;;;;;;;38.08;21.85;;;;;;;;;;10029443;28;20030;-72
2023/11/08 09:22:09;;;;;;;31.45;23.63;;;;;;;;;;10027943;28;20077;-72
2023/11/08 09:27:01;;;;;;;34.33;25.23;;;;;;;;;;10024154;28;20055;-72
2023/11/08 09:31:53;;;;;;;37.75;25.77;;;;;;;;;;10025366;28;20054;-72
2023/11/08 09:36:48;;;;;;;32.55;24.33;;;;;;;;;;10017971;28;20504;-72
2023/11/08 09:41:41;;;;;;;34.67;28.40;;;;;;;;;;10032638;28;20132;-72
2023/11/08 09:46:34;;;;;;;44.60;28.88;;;;;;;;;;10017909;28;20073;-71
2023/11/08 09:51:26;;;;;;;48.90;30.98;;;;;;;;;;10023578;28;20081;-71
2023/11/08 09:56:18;;;;;;;37.63;28.90;;;;;;;;;;10007999;28;20042;-72
2023/11/08 10:01:17;;;;;;;39.08;30.83;;;;;;;;;;10022250;28;20590;-72
2023/11/08 10:06:09;;;;;;;45.30;29.20;;;;;;;;;;10031276;28;20072;-72
2023/11/08 10:11:01;;;;;;;38.97;28.27;;;;;;;;;;10030578;28;20050;-73
2023/11/08 10:15:56;;;;;;;35.83;28.60;;;;;;;;;;10029787;28;20121;-72
2023/11/08 10:20:53;;;;;;;40.38;28.92;;;;;;;;;;10024156;28;20038;-72
2023/11/08 10:26:16;;;;;;;38.17;31.45;;;;;;;;;;10019969;28;20358;-71
2023/11/08 10:31:35;;;;;;;40.92;28.23;;;;;;;;;;10031034;28;20051;-72
2023/11/08 10:36:28;;;;;;;36.20;30.33;;;;;;;;;;10020955;28;20045;-72
2023/11/08 10:41:22;;;;;;;39.30;31.10;;;;;;;;;;10027154;28;20538;-72
2023/11/08 10:46:14;;;;;;;34.78;28.63;;;;;;;;;;10016115;28;20076;-71
2023/11/08 10:51:06;;;;;;;34.65;26.75;;;;;;;;;;10016810;28;20065;-72
2023/11/08 10:56:03;;;;;;;34.95;24.35;;;;;;;;;;10019738;28;20073;-72
2023/11/08 11:00:56;;;;;;;37.88;31.33;;;;;;;;;;10020873;28;20041;-72
2023/11/08 11:05:49;;;;;;;33.40;26.92;;;;;;;;;;10021624;28;20500;-72
2023/11/08 11:10:41;;;;;;;30.85;27.33;;;;;;;;;;10018289;28;20112;-71
2023/11/08 11:15:53;;;;;;;41.35;29.13;;;;;;;;;;10044686;28;20973;-72
2023/11/08 11:20:54;;;;;;;41.67;33.88;;;;;;;;;;10051109;28;20049;-73
2023/11/08 11:25:50;;;;;;;38.90;30.73;;;;;;;;;;10041787;28;20042;-72
2023/11/08 11:30:42;;;;;;;35.80;29.67;;;;;;;;;;10039863;28;20096;-71
2023/11/08 11:35:34;;;;;;;35.25;28.67;;;;;;;;;;10029167;28;20096;-72
2023/11/08 11:40:26;;;;;;;36.45;29.50;;;;;;;;;;10056014;28;20073;-72
2023/11/08 11:45:18;;;;;;;32.15;26.88;;;;;;;;;;10045098;28;20076;-72
2023/11/08 11:50:12;;;;;;;31.95;26.05;;;;;;;;;;10045187;28;20099;-72
2023/11/08 11:55:06;;;;;;;28.27;24.58;;;;;;;;;;10039296;28;20037;-72
2023/11/08 11:59:59;;;;;;;28.05;22.52;;;;;;;;;;10045976;28;20077;-71
2023/11/08 12:04:52;;;;;;;28.63;23.35;;;;;;;;;;10043741;28;20038;-72
2023/11/08 12:09:45;;;;;;;25.58;19.98;;;;;;;;;;10049910;28;20099;-72
2023/11/08 12:14:44;;;;;;;23.13;17.58;;;;;;;;;;10071144;28;20069;-70
2023/11/08 12:19:36;;;;;;;26.90;18.63;;;;;;;;;;10071562;28;20038;-72
2023/11/08 12:24:32;;;;;;;19.88;17.23;;;;;;;;;;10070795;28;20046;-72
2023/11/08 12:29:24;;;;;;;27.15;17.45;;;;;;;;;;10060934;28;20046;-72
2023/11/08 12:34:16;;;;;;;20.60;16.80;;;;;;;;;;10033593;28;20393;-74
2023/11/08 12:39:17;;;;;;;19.92;17.83;;;;;;;;;;10052304;28;20049;-72
2023/11/08 12:44:09;;;;;;;19.27;14.88;;;;;;;;;;10060540;28;20118;-72
2023/11/08 12:49:01;;;;;;;17.42;14.07;;;;;;;;;;10069131;28;20160;-72
2023/11/08 12:53:55;;;;;;;20.55;15.05;;;;;;;;;;10068996;28;20050;-72
2023/11/08 12:58:49;;;;;;;17.90;14.25;;;;;;;;;;10068310;28;20076;-72
2023/11/08 13:03:42;;;;;;;24.75;14.73;;;;;;;;;;10069511;28;20049;-72
2023/11/08 13:08:36;;;;;;;18.48;14.70;;;;;;;;;;10067077;28;20053;-71
2023/11/08 13:13:28;;;;;;;21.38;14.18;;;;;;;;;;10065058;28;20121;-72
2023/11/08 13:18:20;;;;;;;15.85;14.15;;;;;;;;;;10051076;28;20650;-71
2023/11/08 13:23:12;;;;;;;15.10;13.25;;;;;;;;;;10055143;28;20104;-71
2023/11/08 13:28:24;;;;;;;15.73;13.95;;;;;;;;;;10058497;28;20042;-71
2023/11/08 13:33:16;;;;;;;15.10;13.02;;;;;;;;;;10067865;28;20048;-72
2023/11/08 13:38:10;;;;;;;19.90;15.27;;;;;;;;;;10068121;28;20103;-71
2023/11/08 13:43:02;;;;;;;14.93;13.27;;;;;;;;;;10067579;28;20057;-71
2023/11/08 13:47:56;;;;;;;19.73;13.95;;;;;;;;;;10067361;28;20366;-71
2023/11/08 13:52:50;;;;;;;17.27;13.32;;;;;;;;;;10066708;28;20045;-72
2023/11/08 13:57:42;;;;;;;22.48;15.85;;;;;;;;;;10063964;28;20050;-73
2023/11/08 14:02:35;;;;;;;17.85;13.98;;;;;;;;;;10064182;28;20128;-73
2023/11/08 14:07:27;;;;;;;18.98;13.60;;;;;;;;;;10057836;28;20091;-73
2023/11/08 14:12:19;;;;;;;16.23;13.35;;;;;;;;;;10066542;28;20476;-73
2023/11/08 14:17:11;;;;;;;17.30;13.73;;;;;;;;;;10054732;28;20065;-73
2023/11/08 14:22:03;;;;;;;17.38;15.45;;;;;;;;;;10039846;28;20124;-72
2023/11/08 14:26:55;;;;;;;20.98;15.13;;;;;;;;;;10055540;28;20166;-72
2023/11/08 14:31:47;;;;;;;20.10;15.93;;;;;;;;;;10063250;28;20068;-73
2023/11/08 14:36:40;;;;;;;19.75;16.75;;;;;;;;;;10063222;28;20037;-72
2023/11/08 14:41:48;;;;;;;23.47;14.53;;;;;;;;;;10062040;28;20049;-71
2023/11/08 14:46:40;;;;;;;20.75;13.27;;;;;;;;;;10063072;28;20300;-76
2023/11/08 14:51:32;;;;;;;19.98;13.73;;;;;;;;;;10058106;28;20056;-74
2023/11/08 14:56:24;;;;;;;21.63;14.20;;;;;;;;;;10023468;28;20400;-73
2023/11/08 15:01:16;;;;;;;18.15;13.32;;;;;;;;;;10022802;28;20049;-73
2023/11/08 15:06:11;;;;;;;17.30;13.75;;;;;;;;;;10022278;28;20372;-73
2023/11/08 15:11:03;;;;;;;17.10;13.40;;;;;;;;;;10024129;28;20042;-73
2023/11/08 15:15:55;;;;;;;29.38;20.63;;;;;;;;;;10023987;28;20084;-73
2023/11/08 15:20:47;;;;;;;14.40;12.25;;;;;;;;;;10025198;28;20057;-73
2023/11/08 15:25:39;;;;;;;18.05;12.00;;;;;;;;;;10023300;28;20072;-74
2023/11/08 15:30:31;;;;;;;18.70;12.23;;;;;;;;;;10023808;28;20073;-74
2023/11/08 15:35:23;;;;;;;15.27;13.15;;;;;;;;;;10019573;28;20420;-74
2023/11/08 15:40:15;;;;;;;19.48;15.50;;;;;;;;;;10025995;28;20112;-73
2023/11/08 15:45:08;;;;;;;17.17;12.70;;;;;;;;;;10033160;28;20042;-72
2023/11/08 15:50:00;;;;;;;22.08;14.43;;;;;;;;;;10034069;28;20065;-72
2023/11/08 15:54:51;;;;;;;21.95;13.98;;;;;;;;;;10031385;28;20042;-70
2023/11/08 15:59:43;;;;;;;23.67;15.30;;;;;;;;;;10024019;28;20133;-73
2023/11/08 16:04:35;;;;;;;18.98;14.45;;;;;;;;;;10033966;28;20140;-71
2023/11/08 16:09:27;;;;;;;38.22;33.95;;;;;;;;;;10028823;28;20381;-71
2023/11/08 16:14:23;;;;;;;31.00;25.55;;;;;;;;;;10026606;28;20042;-71
2023/11/08 16:19:15;;;;;;;21.65;18.40;;;;;;;;;;10038799;28;20141;-72
2023/11/08 16:24:07;;;;;;;23.95;18.77;;;;;;;;;;10030245;28;20053;-71
2023/11/08 16:29:00;;;;;;;19.95;16.23;;;;;;;;;;10030450;28;20042;-71
2023/11/08 16:34:12;;;;;;;23.60;15.25;;;;;;;;;;10018867;28;20144;-72
2023/11/08 16:39:05;;;;;;;22.35;18.58;;;;;;;;;;10024045;28;20042;-71
2023/11/08 16:43:56;;;;;;;22.60;19.30;;;;;;;;;;10025904;28;20113;-73
2023/11/08 16:48:48;;;;;;;19.73;16.85;;;;;;;;;;10030698;28;20100;-72
2023/11/08 16:53:40;;;;;;;24.45;18.90;;;;;;;;;;10014871;28;20054;-72
2023/11/08 16:58:32;;;;;;;33.95;20.83;;;;;;;;;;10028467;28;20081;-72
2023/11/08 17:03:24;;;;;;;27.25;23.80;;;;;;;;;;10045498;28;20094;-72
2023/11/08 17:08:16;;;;;;;31.00;23.40;;;;;;;;;;10052874;28;20053;-72
2023/11/08 17:13:09;;;;;;;30.60;25.27;;;;;;;;;;10030347;28;20049;-72
2023/11/08 17:18:01;;;;;;;27.90;25.00;;;;;;;;;;10043006;28;20129;-72
2023/11/08 17:22:54;;;;;;;36.05;27.63;;;;;;;;;;10029931;28;20099;-72
2023/11/08 17:27:46;;;;;;;25.98;23.20;;;;;;;;;;10046951;28;20072;-72
2023/11/08 17:32:38;;;;;;;31.27;24.20;;;;;;;;;;10053081;28;20137;-72
2023/11/08 17:37:31;;;;;;;24.58;21.95;;;;;;;;;;10054112;28;20048;-71
2023/11/08 17:42:23;;;;;;;20.85;18.38;;;;;;;;;;10058249;28;20121;-72
2023/11/08 17:47:15;;;;;;;23.02;20.33;;;;;;;;;;10058640;28;20038;-71
2023/11/08 17:52:08;;;;;;;28.50;22.80;;;;;;;;;;10034549;28;20084;-72
2023/11/08 17:57:03;;;;;;;35.88;32.10;;;;;;;;;;10020824;28;20038;-72
2023/11/08 18:01:55;;;;;;;35.55;25.85;;;;;;;;;;10026384;28;20505;-72
2023/11/08 18:06:47;;;;;;;28.27;24.33;;;;;;;;;;10027786;28;20038;-72
2023/11/08 18:11:39;;;;;;;28.67;22.15;;;;;;;;;;10005660;28;20469;-72
2023/11/08 18:16:32;;;;;;;30.42;26.05;;;;;;;;;;10008047;28;20042;-72
2023/11/08 18:21:25;;;;;;;28.85;25.23;;;;;;;;;;9999909;28;20096;-72
2023/11/08 18:26:17;;;;;;;32.83;27.92;;;;;;;;;;10000137;28;20133;-72
2023/11/08 18:31:09;;;;;;;34.78;27.38;;;;;;;;;;10000229;28;20065;-72
2023/11/08 18:36:01;;;;;;;39.95;30.40;;;;;;;;;;9996756;28;20043;-72
2023/11/08 18:40:54;;;;;;;36.17;30.33;;;;;;;;;;10022653;28;20483;-72
2023/11/08 18:45:48;;;;;;;37.50;29.58;;;;;;;;;;10044947;28;20092;-72
2023/11/08 18:50:40;;;;;;;46.38;29.58;;;;;;;;;;10014575;28;20057;-72
2023/11/08 18:55:33;;;;;;;36.65;30.23;;;;;;;;;;10026000;28;20052;-72
2023/11/08 19:00:25;;;;;;;31.70;26.35;;;;;;;;;;10025864;28;20042;-72
2023/11/08 19:05:19;;;;;;;35.90;26.95;;;;;;;;;;10023890;28;20062;-72
2023/11/08 19:10:11;;;;;;;42.58;29.35;;;;;;;;;;10021473;28;20104;-72
2023/11/08 19:15:03;;;;;;;43.50;29.67;;;;;;;;;;10004905;28;20089;-72
2023/11/08 19:19:55;;;;;;;32.13;27.77;;;;;;;;;;10033092;28;20056;-72
2023/11/08 19:24:47;;;;;;;36.25;29.63;;;;;;;;;;10020354;28;20057;-73
2023/11/08 19:29:39;;;;;;;37.50;29.58;;;;;;;;;;10020892;28;20077;-72
2023/11/08 19:34:31;;;;;;;37.70;26.08;;;;;;;;;;10024795;28;20129;-72
2023/11/08 19:39:23;;;;;;;33.70;27.70;;;;;;;;;;10039351;28;20053;-73
2023/11/08 19:44:15;;;;;;;39.35;28.77;;;;;;;;;;10032841;28;20058;-73
2023/11/08 19:49:08;;;;;;;35.38;28.80;;;;;;;;;;10033030;28;20467;-73
2023/11/08 19:54:00;;;;;;;35.85;26.35;;;;;;;;;;10007123;28;20050;-71
2023/11/08 19:58:52;;;;;;;27.52;22.98;;;;;;;;;;10029099;28;20556;-72
2023/11/08 20:03:44;;;;;;;28.90;24.48;;;;;;;;;;10029064;28;20058;-71
2023/11/08 20:08:36;;;;;;;32.60;26.10;;;;;;;;;;10028450;28;20084;-72
2023/11/08 20:13:30;;;;;;;31.67;24.02;;;;;;;;;;10031140;28;20378;-71
2023/11/08 20:18:21;;;;;;;46.40;32.90;;;;;;;;;;10032458;28;20100;-71
2023/11/08 20:23:13;;;;;;;31.45;21.92;;;;;;;;;;10031597;28;20046;-71
2023/11/08 20:28:06;;;;;;;27.50;20.58;;;;;;;;;;10031369;28;20046;-72
2023/11/08 20:32:58;;;;;;;29.30;18.60;;;;;;;;;;10031277;28;20042;-72
2023/11/08 20:37:51;;;;;;;21.17;15.60;;;;;;;;;;10030598;28;20464;-72
2023/11/08 20:42:44;;;;;;;22.38;15.00;;;;;;;;;;10030758;28;20133;-72
2023/11/08 20:47:36;;;;;;;20.08;14.60;;;;;;;;;;10030978;28;20073;-73
2023/11/08 20:52:28;;;;;;;19.92;13.45;;;;;;;;;;10029914;28;20476;-72
2023/11/08 20:57:20;;;;;;;19.00;13.80;;;;;;;;;;10030410;28;20046;-72
2023/11/08 21:02:13;;;;;;;20.77;13.90;;;;;;;;;;10029329;28;20049;-71
2023/11/08 21:07:08;;;;;;;17.10;14.30;;;;;;;;;;10029138;28;20050;-71
2023/11/08 21:12:01;;;;;;;14.85;12.85;;;;;;;;;;10038727;28;20156;-72
2023/11/08 21:16:53;;;;;;;22.45;16.63;;;;;;;;;;10043533;28;20371;-71
2023/11/08 21:21:45;;;;;;;19.08;14.95;;;;;;;;;;10041193;28;20073;-71
2023/11/08 21:26:37;;;;;;;23.13;19.17;;;;;;;;;;10049577;28;20050;-71
2023/11/08 21:31:29;;;;;;;15.18;13.63;;;;;;;;;;10054375;28;20042;-71
2023/11/08 21:36:21;;;;;;;11.40;9.57;;;;;;;;;;10057132;28;20129;-71
2023/11/08 21:41:14;;;;;;;12.68;8.25;;;;;;;;;;10053088;28;20042;-71
2023/11/08 21:46:07;;;;;;;14.55;8.10;;;;;;;;;;10055827;28;20038;-71
2023/11/08 21:51:01;;;;;;;18.25;14.88;;;;;;;;;;10007447;28;20047;-71
2023/11/08 21:55:53;;;;;;;17.17;10.95;;;;;;;;;;10021714;28;20136;-72
2023/11/08 22:00:47;;;;;;;13.95;10.07;;;;;;;;;;10021641;28;20462;-72
2023/11/08 22:05:39;;;;;;;12.95;8.75;;;;;;;;;;10027746;28;20042;-72
2023/11/08 22:10:31;;;;;;;11.13;8.25;;;;;;;;;;10028031;28;20037;-72
2023/11/08 22:15:23;;;;;;;15.93;10.43;;;;;;;;;;10027646;28;20045;-72
2023/11/08 22:20:16;;;;;;;15.32;9.45;;;;;;;;;;10026075;28;20421;-72
2023/11/08 22:25:08;;;;;;;12.95;10.57;;;;;;;;;;10017580;28;20053;-71
2023/11/08 22:30:00;;;;;;;9.07;8.05;;;;;;;;;;10011014;28;20049;-72
2023/11/08 22:34:52;;;;;;;6.72;5.63;;;;;;;;;;10023336;28;20125;-72
2023/11/08 22:39:45;;;;;;;5.80;4.68;;;;;;;;;;10023265;28;20104;-72
2023/11/08 22:44:37;;;;;;;6.07;3.83;;;;;;;;;;10022751;28;20100;-72
2023/11/08 22:49:30;;;;;;;7.70;3.65;;;;;;;;;;10024711;28;20081;-72
2023/11/08 22:54:22;;;;;;;5.80;4.82;;;;;;;;;;10026064;28;20048;-72
2023/11/08 22:59:13;;;;;;;15.52;9.15;;;;;;;;;;10025493;28;20512;-72
2023/11/08 23:04:05;;;;;;;13.00;9.38;;;;;;;;;;10026552;28;20108;-72
2023/11/08 23:09:00;;;;;;;30.63;7.88;;;;;;;;;;10026600;28;20473;-72
2023/11/08 23:13:54;;;;;;;12.02;9.65;;;;;;;;;;10025697;28;20100;-71
2023/11/08 23:18:45;;;;;;;13.32;7.80;;;;;;;;;;10026289;28;20041;-72
2023/11/08 23:23:39;;;;;;;18.00;12.63;;;;;;;;;;10026734;28;20077;-72
2023/11/08 23:28:30;;;;;;;10.63;7.40;;;;;;;;;;10024927;28;20042;-72
2023/11/08 23:33:23;;;;;;;18.88;12.68;;;;;;;;;;10025769;28;20465;-72
2023/11/08 23:38:14;;;;;;;6.32;4.78;;;;;;;;;;10026138;28;20515;-72
2023/11/08 23:43:06;;;;;;;12.63;5.72;;;;;;;;;;10025044;28;20044;-71
2023/11/08 23:47:58;;;;;;;9.43;6.28;;;;;;;;;;10025784;28;20050;-72
2023/11/08 23:52:50;;;;;;;7.18;5.55;;;;;;;;;;10024870;28;20080;-72
2023/11/08 23:57:42;;;;;;;7.75;6.05;;;;;;;;;;10020785;28;20377;-72
